createdAt,value
2022-10-05T05:16:46.461Z,98071.63
2022-10-05T05:19:38.034Z,98076.50
2022-10-05T05:22:26.126Z,98082.66
2022-10-05T05:25:06.549Z,98077.25
2022-10-05T05:27:58.612Z,98069.19
2022-10-05T05:30:41.636Z,98067.13
2022-10-05T05:33:36.238Z,98068.16
2022-10-05T05:36:31.566Z,98072.97
2022-10-05T05:39:01.830Z,98078.97
2022-10-05T05:41:39.192Z,98082.03
2022-10-05T05:44:26.921Z,98079.75
2022-10-05T05:47:13.411Z,98081.84
2022-10-05T05:50:07.795Z,98088.56
2022-10-05T05:52:41.386Z,98085.44
2022-10-05T05:55:29.890Z,98090.34
2022-10-05T05:58:17.010Z,98099.06
2022-10-05T06:00:48.264Z,98104.59
2022-10-05T06:03:26.614Z,98103.91
2022-10-05T06:06:10.793Z,98111.88
2022-10-05T06:08:45.794Z,98102.72
2022-10-05T06:11:29.148Z,98104.19
2022-10-05T06:14:03.917Z,98106.41
2022-10-05T06:16:37.096Z,98120.06
2022-10-05T06:19:09.636Z,98120.63
2022-10-05T06:22:06.013Z,98110.97
2022-10-05T06:24:41.230Z,98114.75
2022-10-05T06:27:13.811Z,98114.34
2022-10-05T06:29:51.094Z,98114.84
2022-10-05T06:32:48.359Z,98127.06
2022-10-05T06:35:37.720Z,98118.75
2022-10-05T06:38:11.474Z,98111.97
2022-10-05T06:40:45.608Z,98116.75
2022-10-05T06:43:41.304Z,98117.59
2022-10-05T06:46:48.150Z,98118.44
2022-10-05T06:49:37.385Z,98119.81
2022-10-05T06:52:49.494Z,98121.47
2022-10-05T06:55:56.600Z,98118.00
2022-10-05T06:58:42.913Z,98136.34
2022-10-05T07:01:16.166Z,98130.03
2022-10-05T07:03:58.180Z,98130.44
2022-10-05T07:06:52.160Z,98126.16
2022-10-05T07:09:44.157Z,98133.91
2022-10-05T07:12:30.472Z,98141.63
2022-10-05T07:15:19.909Z,98141.03
2022-10-05T07:17:59.690Z,98144.50
2022-10-05T07:20:55.568Z,98139.19
2022-10-05T07:23:41.994Z,98144.94
2022-10-05T07:26:33.063Z,98137.34
2022-10-05T07:29:07.394Z,98138.56
2022-10-05T07:31:48.470Z,98144.06
2022-10-05T07:34:20.176Z,98145.31
2022-10-05T07:37:14.266Z,98145.91
2022-10-05T07:40:00.188Z,98155.28
2022-10-05T07:42:48.922Z,98142.53
2022-10-05T07:45:52.464Z,98138.97
2022-10-05T07:48:29.240Z,98140.34
2022-10-05T07:51:00.158Z,98143.69
2022-10-05T07:54:00.693Z,98147.97
2022-10-05T07:56:38.943Z,98146.72
2022-10-05T07:59:11.323Z,98153.69
2022-10-05T08:01:42.300Z,98149.16
2022-10-05T08:04:24.400Z,98152.44
2022-10-05T08:06:58.184Z,98152.44
2022-10-05T08:09:45.584Z,98159.78
2022-10-05T08:12:21.667Z,98166.75
2022-10-05T08:15:15.854Z,98172.22
2022-10-05T08:18:03.513Z,98165.28
2022-10-05T08:21:12.405Z,98170.25
2022-10-05T08:23:52.157Z,98162.03
2022-10-05T08:26:42.329Z,98158.34
2022-10-05T08:29:30.612Z,98163.28
2022-10-05T08:32:09.788Z,98180.38
2022-10-05T08:38:17.678Z,98181.84
2022-10-05T08:41:07.895Z,98178.28
2022-10-05T08:44:52.955Z,98181.63
2022-10-05T08:47:39.730Z,98190.56
2022-10-05T08:50:20.422Z,98196.84
2022-10-05T08:53:14.986Z,98194.81
2022-10-05T08:56:06.898Z,98176.06
2022-10-05T08:58:53.126Z,98179.16
2022-10-05T09:02:05.112Z,98185.34
2022-10-05T09:04:38.113Z,98184.47
2022-10-05T09:07:28.951Z,98197.78
2022-10-05T09:10:18.817Z,98189.47
2022-10-05T09:13:16.195Z,98180.19
2022-10-05T09:15:52.948Z,98173.53
2022-10-05T09:19:04.761Z,98193.13
2022-10-05T09:21:56.611Z,98205.31
2022-10-05T09:24:48.652Z,98205.84
2022-10-05T09:27:17.659Z,98197.38
2022-10-05T09:29:51.343Z,98186.78
2022-10-05T09:32:34.436Z,98184.28
2022-10-05T09:35:21.101Z,98194.06
2022-10-05T09:38:16.207Z,98192.03
2022-10-05T09:40:51.933Z,98194.03
2022-10-05T09:43:40.295Z,98194.84
2022-10-05T09:46:08.446Z,98190.88
2022-10-05T09:48:54.867Z,98191.91
2022-10-05T09:51:44.415Z,98199.03
2022-10-05T09:54:22.361Z,98193.50
2022-10-05T09:57:05.559Z,98198.94
2022-10-05T09:59:36.239Z,98194.84
2022-10-05T10:02:29.060Z,98199.38
2022-10-05T10:05:16.475Z,98192.41
2022-10-05T10:08:21.993Z,98178.91
2022-10-05T10:11:07.290Z,98182.09
2022-10-05T10:13:47.890Z,98179.34
2022-10-05T10:16:46.444Z,98184.69
2022-10-05T10:19:33.323Z,98177.50
2022-10-05T10:22:19.764Z,98178.91
2022-10-05T10:25:12.799Z,98185.19
2022-10-05T10:27:59.533Z,98175.03
2022-10-05T10:30:34.429Z,98176.91
2022-10-05T10:33:30.446Z,98184.63
2022-10-05T10:36:16.952Z,98184.94
2022-10-05T10:38:54.124Z,98170.34
2022-10-05T10:41:27.935Z,98169.81
2022-10-05T10:44:04.563Z,98174.84
2022-10-05T10:47:00.438Z,98175.16
2022-10-05T10:49:52.819Z,98173.66
2022-10-05T10:52:33.034Z,98164.84
2022-10-05T10:55:35.427Z,98153.75
2022-10-05T10:58:18.432Z,98153.78
2022-10-05T11:01:08.392Z,98149.72
2022-10-05T11:03:51.781Z,98161.94
2022-10-05T11:06:25.463Z,98150.34
2022-10-05T11:08:53.418Z,98154.41
2022-10-05T11:11:46.085Z,98153.78
2022-10-05T11:14:45.312Z,98143.69
2022-10-05T11:17:33.554Z,98159.72
2022-10-05T11:20:31.071Z,98165.19
2022-10-05T11:23:29.430Z,98170.19
2022-10-05T11:26:16.082Z,98153.97
2022-10-05T11:29:05.425Z,98161.44
2022-10-05T11:31:42.288Z,98151.41
2022-10-05T11:34:18.880Z,98147.34
2022-10-05T11:37:11.197Z,98150.03
2022-10-05T11:40:11.984Z,98147.69
2022-10-05T11:43:02.627Z,98154.94
2022-10-05T11:45:40.136Z,98142.72
2022-10-05T11:48:14.193Z,98152.88
2022-10-05T11:51:12.250Z,98143.94
2022-10-05T11:53:53.895Z,98143.88
2022-10-05T11:56:41.421Z,98133.16
2022-10-05T11:59:21.071Z,98141.66
2022-10-05T12:01:55.983Z,98130.50
2022-10-05T12:04:33.681Z,98131.03
2022-10-05T12:07:15.235Z,98124.16
2022-10-05T12:10:09.472Z,98129.22
2022-10-05T12:12:40.249Z,98128.13
2022-10-05T12:15:17.703Z,98111.25
2022-10-05T12:17:51.313Z,98120.84
2022-10-05T12:20:24.140Z,98125.91
2022-10-05T12:23:40.207Z,98123.31
2022-10-05T12:26:15.026Z,98119.97
2022-10-05T12:28:48.075Z,98132.63
2022-10-05T12:31:34.310Z,98122.81
2022-10-05T12:34:40.598Z,98123.66
2022-10-05T12:37:17.401Z,98125.66
2022-10-05T12:39:52.634Z,98120.25
2022-10-05T12:42:24.834Z,98131.38
2022-10-05T12:45:13.838Z,98128.34
2022-10-05T12:47:53.774Z,98127.75
2022-10-05T12:50:35.163Z,98135.03
2022-10-05T12:53:15.401Z,98119.88
2022-10-05T12:55:51.191Z,98122.47
2022-10-05T12:58:24.364Z,98116.47
2022-10-05T13:00:57.542Z,98126.66
2022-10-05T13:03:30.968Z,98116.44
2022-10-05T13:06:26.589Z,98126.66
2022-10-05T13:09:02.600Z,98120.97
2022-10-05T13:11:37.989Z,98121.66
2022-10-05T13:14:34.381Z,98126.50
2022-10-05T13:17:10.800Z,98140.06
2022-10-05T13:19:44.794Z,98132.56
2022-10-05T13:22:27.813Z,98120.00
2022-10-05T13:25:14.290Z,98115.22
2022-10-05T13:28:13.171Z,98124.06
2022-10-05T13:30:41.813Z,98123.19
2022-10-05T13:33:32.546Z,98130.53
2022-10-05T13:36:55.691Z,98125.84
2022-10-05T13:39:38.683Z,98113.63
2022-10-05T13:42:21.507Z,98133.69
2022-10-05T13:45:03.523Z,98131.16
2022-10-05T13:47:34.270Z,98126.72
2022-10-05T13:50:32.685Z,98128.16
2022-10-05T13:53:22.043Z,98122.41
2022-10-05T13:56:01.217Z,98124.69
2022-10-05T13:58:50.473Z,98112.84
2022-10-05T14:01:41.490Z,98128.38
2022-10-05T14:04:21.021Z,98123.25
2022-10-05T14:06:49.154Z,98120.19
2022-10-05T14:09:37.085Z,98124.69
2022-10-05T14:12:05.513Z,98132.88
2022-10-05T14:14:41.713Z,98122.44
2022-10-05T14:17:39.836Z,98121.25
2022-10-05T14:20:23.185Z,98116.56
2022-10-05T14:22:57.556Z,98120.44
2022-10-05T14:25:40.270Z,98117.41
2022-10-05T14:28:13.320Z,98127.59
2022-10-05T14:31:17.037Z,98119.22
2022-10-05T14:37:30.106Z,98112.09
2022-10-05T14:40:06.851Z,98115.56
2022-10-05T14:42:46.960Z,98113.50
2022-10-05T14:45:26.365Z,98098.66
2022-10-05T14:48:02.257Z,98099.44
2022-10-05T14:50:34.658Z,98098.22
2022-10-05T14:53:12.556Z,98103.09
2022-10-05T14:56:24.559Z,98096.56
2022-10-05T14:59:04.287Z,98100.69
2022-10-05T15:01:35.236Z,98105.56
2022-10-05T15:04:31.115Z,98107.16
2022-10-05T15:07:20.277Z,98102.47
2022-10-05T15:10:16.559Z,98099.00
2022-10-05T15:12:48.312Z,98104.28
2022-10-05T15:15:45.005Z,98099.16
2022-10-05T15:18:19.744Z,98096.72
2022-10-05T15:21:04.538Z,98105.22
2022-10-05T15:23:37.990Z,98108.84
2022-10-05T15:26:46.016Z,98103.72
2022-10-05T15:29:51.993Z,98100.47
2022-10-05T15:32:34.964Z,98106.16
2022-10-05T15:35:08.604Z,98105.31
2022-10-05T15:38:04.307Z,98111.22
2022-10-05T15:40:37.309Z,98113.78
2022-10-05T15:43:16.889Z,98117.22
2022-10-05T15:46:05.445Z,98115.38
2022-10-05T15:48:49.445Z,98117.34
2022-10-05T15:51:17.081Z,98117.28
2022-10-05T15:54:26.259Z,98108.25
2022-10-05T15:56:59.834Z,98111.81
2022-10-05T15:59:56.813Z,98110.97
2022-10-05T16:02:31.681Z,98115.56
2022-10-05T16:05:56.679Z,98116.91
2022-10-05T16:08:51.845Z,98116.13
2022-10-05T16:11:57.923Z,98126.91
2022-10-05T16:14:28.626Z,98130.31
2022-10-05T16:17:11.847Z,98120.63
2022-10-05T16:19:53.833Z,98130.69
2022-10-05T16:22:43.475Z,98139.38
2022-10-05T16:25:24.020Z,98133.97
2022-10-05T16:28:05.263Z,98137.75
2022-10-05T16:30:59.129Z,98140.03
2022-10-05T16:33:54.626Z,98144.56
2022-10-05T16:37:15.787Z,98143.88
2022-10-05T16:39:57.683Z,98134.22
2022-10-05T16:42:28.445Z,98140.75
2022-10-05T16:45:14.285Z,98135.72
2022-10-05T16:48:03.947Z,98140.38
2022-10-05T16:50:37.168Z,98143.53
2022-10-05T16:53:12.571Z,98146.03
2022-10-05T16:55:43.796Z,98144.59
2022-10-05T16:58:27.449Z,98152.22
2022-10-05T17:01:08.719Z,98149.97
2022-10-05T17:03:49.570Z,98153.59
2022-10-05T17:06:21.010Z,98155.66
2022-10-05T17:08:52.884Z,98148.41
2022-10-05T17:11:34.264Z,98142.84
2022-10-05T17:14:08.248Z,98132.31
2022-10-05T17:16:48.068Z,98144.09
2022-10-05T17:19:34.357Z,98142.06
2022-10-05T17:22:25.683Z,98141.06
2022-10-05T17:25:00.470Z,98140.97
2022-10-05T17:27:51.031Z,98140.66
2022-10-05T17:30:37.860Z,98140.47
2022-10-05T17:33:11.952Z,98145.13
